createdAt,value
2022-07-31T00:04:17.576Z,45.38
2022-07-31T00:09:48.980Z,45.43
2022-07-31T00:14:40.421Z,45.46
2022-07-31T00:19:41.873Z,45.55
2022-07-31T00:24:44.354Z,45.48
2022-07-31T00:29:45.762Z,45.50
2022-07-31T00:34:47.175Z,45.18
2022-07-31T00:39:49.349Z,45.53
2022-07-31T00:44:51.029Z,45.01
2022-07-31T00:49:52.449Z,45.12
2022-07-31T00:54:53.861Z,45.05
2022-07-31T00:59:55.276Z,45.29
2022-07-31T01:04:56.695Z,44.89
2022-07-31T01:09:58.096Z,45.29
2022-07-31T01:15:01.858Z,44.89
2022-07-31T01:20:04.117Z,45.05
2022-07-31T01:25:14.429Z,45.26
2022-07-31T01:30:15.848Z,44.97
2022-07-31T01:35:27.669Z,45.14
2022-07-31T01:40:35.465Z,45.18
2022-07-31T01:45:38.460Z,45.11
2022-07-31T01:50:43.886Z,44.87
2022-07-31T01:56:02.217Z,44.85
2022-07-31T02:01:08.071Z,44.95
2022-07-31T02:06:10.173Z,45.10
2022-07-31T02:11:13.845Z,44.61
2022-07-31T02:16:15.348Z,44.52
2022-07-31T02:21:16.861Z,44.66
2022-07-31T02:26:18.282Z,44.73
2022-07-31T02:31:19.694Z,44.34
2022-07-31T02:36:21.237Z,44.42
2022-07-31T02:41:22.668Z,44.48
2022-07-31T02:46:24.125Z,44.64
2022-07-31T02:51:25.534Z,44.06
2022-07-31T02:56:28.620Z,44.44
2022-07-31T03:01:34.468Z,44.26
2022-07-31T03:06:36.253Z,44.32
2022-07-31T03:11:37.659Z,43.89
2022-07-31T03:16:39.825Z,44.20
2022-07-31T03:21:41.500Z,43.96
2022-07-31T03:26:42.944Z,43.98
2022-07-31T03:31:44.400Z,43.94
2022-07-31T03:36:46.429Z,43.87
2022-07-31T03:41:47.841Z,44.12
2022-07-31T03:46:49.248Z,44.34
2022-07-31T03:51:50.663Z,44.06
2022-07-31T03:56:52.493Z,43.66
2022-07-31T04:02:07.367Z,43.75
2022-07-31T04:07:12.031Z,43.65
2022-07-31T04:12:13.438Z,43.77
2022-07-31T04:17:14.838Z,43.97
2022-07-31T04:22:16.351Z,43.50
2022-07-31T04:27:17.856Z,43.73
2022-07-31T04:32:19.353Z,43.73
2022-07-31T04:37:20.758Z,43.61
2022-07-31T04:42:22.175Z,43.53
2022-07-31T04:47:23.585Z,43.72
2022-07-31T04:52:25.049Z,43.98
2022-07-31T04:57:26.452Z,43.69
2022-07-31T05:02:28.365Z,43.59
2022-07-31T05:07:29.804Z,43.76
2022-07-31T05:12:31.517Z,43.86
2022-07-31T05:17:32.924Z,43.66
2022-07-31T05:22:34.369Z,43.83
2022-07-31T05:27:39.132Z,43.29
2022-07-31T05:32:42.831Z,43.68
2022-07-31T05:37:44.261Z,43.41
2022-07-31T05:42:45.661Z,43.28
2022-07-31T05:47:48.149Z,43.50
2022-07-31T05:52:49.606Z,43.48
2022-07-31T05:57:51.461Z,43.04
2022-07-31T06:02:52.885Z,43.48
2022-07-31T06:07:54.467Z,43.42
2022-07-31T06:12:55.972Z,43.10
2022-07-31T06:17:57.424Z,43.16
2022-07-31T06:22:58.881Z,43.05
2022-07-31T06:28:01.121Z,42.95
2022-07-31T06:33:08.191Z,42.91
2022-07-31T06:38:10.005Z,43.05
2022-07-31T06:43:11.404Z,42.78
2022-07-31T06:48:14.035Z,42.77
2022-07-31T06:53:15.454Z,42.31
2022-07-31T06:58:16.944Z,42.46
2022-07-31T07:03:18.363Z,42.56
2022-07-31T07:08:19.794Z,42.19
2022-07-31T07:13:21.207Z,41.98
2022-07-31T07:18:24.956Z,42.01
2022-07-31T07:23:26.406Z,42.37
2022-07-31T07:28:31.162Z,42.62
2022-07-31T07:33:41.512Z,42.41
2022-07-31T07:38:43.845Z,42.13
2022-07-31T07:43:45.734Z,42.60
2022-07-31T07:48:53.351Z,42.54
2022-07-31T07:53:54.798Z,42.32
2022-07-31T07:58:56.293Z,42.25
2022-07-31T08:03:57.893Z,42.32
2022-07-31T08:08:59.335Z,42.40
2022-07-31T08:14:00.737Z,42.63
2022-07-31T08:19:02.142Z,42.62
2022-07-31T08:24:03.720Z,42.63
2022-07-31T08:29:05.221Z,42.63
2022-07-31T08:34:09.217Z,42.51
2022-07-31T08:39:10.696Z,42.54
2022-07-31T08:44:19.108Z,42.13
2022-07-31T08:49:29.413Z,42.12
2022-07-31T08:54:31.349Z,42.48
2022-07-31T08:59:32.814Z,42.65
2022-07-31T09:04:34.401Z,42.69
2022-07-31T09:09:50.859Z,42.24
2022-07-31T09:14:53.329Z,42.07
2022-07-31T09:19:55.102Z,42.09
2022-07-31T09:25:15.843Z,42.06
2022-07-31T09:30:17.291Z,42.01
2022-07-31T09:35:18.712Z,42.30
2022-07-31T09:40:21.246Z,42.24
2022-07-31T09:45:23.603Z,42.18
2022-07-31T09:50:25.049Z,41.85
2022-07-31T09:55:26.544Z,42.01
2022-07-31T10:00:28.132Z,42.16
2022-07-31T10:05:29.687Z,42.27
2022-07-31T10:10:31.726Z,41.70
2022-07-31T10:15:34.242Z,41.73
2022-07-31T10:20:35.677Z,41.71
2022-07-31T10:25:39.271Z,41.74
2022-07-31T10:30:40.716Z,41.68
2022-07-31T10:35:55.623Z,41.85
2022-07-31T10:41:03.733Z,41.36
2022-07-31T10:46:05.196Z,41.96
2022-07-31T10:51:09.852Z,41.88
2022-07-31T10:56:13.526Z,41.45
2022-07-31T11:01:17.450Z,41.56
2022-07-31T11:06:21.316Z,41.95
2022-07-31T11:11:32.767Z,41.84
2022-07-31T11:16:34.162Z,41.38
2022-07-31T11:21:38.963Z,41.95
2022-07-31T11:26:57.302Z,41.76
2022-07-31T11:32:04.961Z,41.83
2022-07-31T11:37:06.621Z,41.71
2022-07-31T11:42:08.278Z,41.94
2022-07-31T11:48:09.529Z,41.92
2022-07-31T11:52:36.860Z,41.92
2022-07-31T11:57:51.369Z,41.65
2022-07-31T12:02:54.080Z,41.59
2022-07-31T12:07:55.516Z,41.74
2022-07-31T12:12:56.927Z,41.66
2022-07-31T12:18:02.658Z,41.36
2022-07-31T12:23:05.394Z,41.20
2022-07-31T12:28:08.018Z,41.32
2022-07-31T12:33:10.049Z,41.15
2022-07-31T12:38:37.849Z,40.73
2022-07-31T12:43:33.333Z,41.19
2022-07-31T12:48:40.088Z,40.98
2022-07-31T12:53:44.138Z,40.89
2022-07-31T12:58:45.549Z,40.81
2022-07-31T13:03:50.880Z,40.85
2022-07-31T13:08:52.292Z,40.96
2022-07-31T13:13:56.707Z,40.76
2022-07-31T13:18:58.113Z,40.27
2022-07-31T13:23:59.549Z,40.17
2022-07-31T13:29:01.250Z,40.07
2022-07-31T13:34:02.662Z,39.95
2022-07-31T13:39:04.066Z,40.00
2022-07-31T13:44:05.468Z,39.91
2022-07-31T13:49:10.421Z,40.09
2022-07-31T13:54:12.257Z,39.69
2022-07-31T13:59:13.840Z,39.46
2022-07-31T14:04:21.389Z,39.52
2022-07-31T14:09:25.208Z,39.61
2022-07-31T14:14:26.868Z,39.40
2022-07-31T14:19:28.961Z,39.26
2022-07-31T14:24:30.365Z,39.45
2022-07-31T14:29:31.809Z,39.21
2022-07-31T14:34:37.504Z,39.03
2022-07-31T14:39:40.346Z,39.09
2022-07-31T14:44:44.373Z,38.74
2022-07-31T14:50:07.138Z,38.59
2022-07-31T14:55:07.649Z,38.21
2022-07-31T15:00:13.014Z,38.60
2022-07-31T15:06:41.166Z,38.51
2022-07-31T15:10:35.929Z,38.72
2022-07-31T15:15:37.348Z,38.04
2022-07-31T15:20:39.125Z,38.20
2022-07-31T15:25:40.528Z,38.01
2022-07-31T15:30:41.973Z,37.86
2022-07-31T15:35:43.369Z,37.59
2022-07-31T15:40:46.913Z,37.34
2022-07-31T15:45:48.318Z,37.64
2022-07-31T15:50:49.718Z,37.46
2022-07-31T15:55:51.265Z,37.70
2022-07-31T16:00:52.719Z,37.65
2022-07-31T16:05:56.213Z,37.30
2022-07-31T16:10:57.808Z,37.27
2022-07-31T16:15:59.206Z,37.71
2022-07-31T16:21:00.604Z,37.69
2022-07-31T16:26:02.022Z,37.28
2022-07-31T16:31:03.499Z,37.62
2022-07-31T16:36:05.277Z,37.83
2022-07-31T16:41:06.680Z,37.90
2022-07-31T16:46:08.122Z,38.05
2022-07-31T16:51:09.533Z,37.66
2022-07-31T16:56:11.304Z,38.05
2022-07-31T17:01:57.351Z,37.87
2022-07-31T17:06:37.282Z,37.51
2022-07-31T17:11:39.493Z,37.99
2022-07-31T17:16:47.217Z,37.41
2022-07-31T17:21:49.903Z,37.98
2022-07-31T17:26:51.311Z,37.58
2022-07-31T17:31:52.758Z,37.61
2022-07-31T17:36:54.661Z,37.97
2022-07-31T17:41:56.065Z,37.53
2022-07-31T17:46:57.819Z,37.99
2022-07-31T17:52:00.502Z,37.90
2022-07-31T17:57:02.171Z,37.91
2022-07-31T18:02:04.371Z,37.50
2022-07-31T18:07:06.776Z,37.54
2022-07-31T18:12:12.213Z,37.67
2022-07-31T18:17:16.341Z,38.05
2022-07-31T18:22:17.742Z,37.68
2022-07-31T18:27:19.149Z,37.52
2022-07-31T18:32:20.668Z,37.60
2022-07-31T18:37:22.102Z,37.61
2022-07-31T18:42:28.761Z,37.70
2022-07-31T18:47:30.226Z,37.82
2022-07-31T18:52:31.629Z,37.53
2022-07-31T18:57:33.024Z,37.63
2022-07-31T19:02:34.429Z,38.03
2022-07-31T19:07:38.309Z,38.00
2022-07-31T19:12:39.754Z,37.75
2022-07-31T19:17:44.163Z,37.67
2022-07-31T19:22:46.434Z,38.01
2022-07-31T19:27:50.272Z,37.98
2022-07-31T19:32:52.013Z,37.80
2022-07-31T19:37:57.466Z,38.06
2022-07-31T19:42:59.617Z,37.97
2022-07-31T19:48:02.108Z,37.70
2022-07-31T19:53:03.548Z,37.96
2022-07-31T19:58:05.740Z,37.68
2022-07-31T20:03:07.195Z,37.66
2022-07-31T20:08:10.141Z,38.05
2022-07-31T20:13:11.541Z,38.01
2022-07-31T20:18:13.020Z,38.21
2022-07-31T20:23:29.388Z,38.78
2022-07-31T20:28:30.788Z,38.49
2022-07-31T20:33:32.211Z,38.94
2022-07-31T20:38:33.872Z,38.58
2022-07-31T20:43:35.276Z,39.08
2022-07-31T20:48:36.690Z,39.00
2022-07-31T20:53:38.098Z,39.07
2022-07-31T20:58:40.724Z,39.44
2022-07-31T21:03:42.164Z,39.53
2022-07-31T21:08:43.613Z,39.48
2022-07-31T21:13:45.296Z,39.21
2022-07-31T21:18:47.833Z,39.80
2022-07-31T21:23:49.485Z,39.65
2022-07-31T21:28:51.232Z,39.45
2022-07-31T21:33:52.807Z,39.48
2022-07-31T21:38:54.369Z,39.40
2022-07-31T21:43:58.888Z,39.48
2022-07-31T21:49:01.114Z,39.63
2022-07-31T21:54:02.555Z,39.51
2022-07-31T21:59:03.962Z,40.14
2022-07-31T22:04:05.409Z,39.79
2022-07-31T22:09:06.809Z,39.91
2022-07-31T22:14:08.617Z,40.36
2022-07-31T22:19:10.228Z,40.27
2022-07-31T22:24:11.776Z,40.09
2022-07-31T22:29:13.178Z,40.29
2022-07-31T22:34:37.412Z,40.45
2022-07-31T22:39:39.365Z,40.63
2022-07-31T22:44:40.812Z,40.42
2022-07-31T22:49:43.418Z,40.79
2022-07-31T22:54:47.758Z,40.51
2022-07-31T22:59:49.182Z,40.49
2022-07-31T23:04:51.057Z,40.76
2022-07-31T23:09:52.518Z,40.55
2022-07-31T23:14:53.930Z,40.93
2022-07-31T23:19:55.438Z,40.48
2022-07-31T23:24:58.129Z,40.70
2022-07-31T23:29:59.922Z,40.65
2022-07-31T23:35:01.385Z,40.68
2022-07-31T23:40:02.840Z,40.90
2022-07-31T23:45:08.963Z,40.79
2022-07-31T23:50:13.528Z,41.07
2022-07-31T23:55:14.978Z,41.00
